Terminal Aerodrome Forecast
Issued by NWS

Home | Current Version | Previous Version | Text Only | Print | Product List | Glossary On
Versions: 1 2 3 4 5 6 7 8 9 10 11 12 13 14 15 16 17 18 19 20 21 22 23 24 25 26 27 28 29 30 31 32 33
000
FTUS45 KBOI 221745
TAFJER
TAF
KJER 221745Z 2218/2318 09013KT P6SM BKN045 OVC070
      TEMPO 2219/2221 2SM -SN OVC030
     FM222100 05020G30KT P6SM OVC070
     FM230000 06015KT 4SM -SN BR SCT015 OVC025
      TEMPO 2301/2305 1SM -SN OVC015
     FM230600 19006KT P6SM OVC040=

USA.gov is the U.S. government's official web portal to all federal, state and local government web resources and services.